Time;durP1;ratioP1;P1;durP2;ratioP2;P2;SDS_P1;SDS_P2;PMS_P1;PMS_P2;Temp;Humidity;BMP_temperature;BMP_pressure;BME280_temperature;BME280_humidity;BME280_pressure;Samples;Min_cycle;Max_cycle;Signal;HPM_P1;HPM_P2
2023/10/25 00:00:16;;;;;;;0.00;0.00;;;;;;;10.99;96.14;98403.75;4998258;28;20627;-74
2023/10/25 00:02:41;;;;;;;0.00;0.00;;;;;;;11.14;95.58;98420.81;4984807;28;20046;-74
2023/10/25 00:05:07;;;;;;;0.00;0.00;;;;;;;11.00;95.79;98399.88;5003910;28;20104;-76
2023/10/25 00:07:33;;;;;;;0.00;0.00;;;;;;;11.14;96.23;98431.75;4972561;28;20033;-75
2023/10/25 00:10:00;;;;;;;0.00;0.00;;;;;;;11.13;95.47;98436.44;4997398;28;20102;-75
2023/10/25 00:12:27;;;;;;;0.00;0.00;;;;;;;11.13;95.69;98430.16;5002409;28;20042;-76
2023/10/25 00:14:52;;;;;;;0.00;0.00;;;;;;;11.05;95.58;98406.31;4982695;28;20026;-75
2023/10/25 00:17:18;;;;;;;0.00;0.00;;;;;;;11.11;95.98;98405.03;4990396;28;20397;-74
2023/10/25 00:19:43;;;;;;;0.00;0.00;;;;;;;11.15;95.93;98406.81;5004660;28;20038;-75
2023/10/25 00:22:18;;;;;;;0.00;0.00;;;;;;;11.11;95.49;98394.09;4996285;28;20113;-74
2023/10/25 00:24:43;;;;;;;0.00;0.00;;;;;;;11.19;95.49;98396.06;4991272;28;21198;-75
2023/10/25 00:27:11;;;;;;;0.00;0.00;;;;;;;11.13;95.78;98376.25;4984322;28;20029;-74
2023/10/25 00:29:39;;;;;;;0.00;0.00;;;;;;;11.18;95.60;98388.97;4970565;28;20069;-74
2023/10/25 00:32:14;;;;;;;0.00;0.00;;;;;;;11.10;95.22;98360.47;5002757;28;20026;-74
2023/10/25 00:34:40;;;;;;;0.00;0.00;;;;;;;11.25;95.40;98378.34;5005546;28;20026;-75
2023/10/25 00:37:05;;;;;;;0.00;0.00;;;;;;;11.24;95.22;98371.25;4992437;28;20033;-77
2023/10/25 00:39:31;;;;;;;0.00;0.00;;;;;;;11.14;95.12;98344.22;5003702;28;20037;-76
2023/10/25 00:41:59;;;;;;;0.00;0.00;;;;;;;11.28;94.85;98349.56;4992087;28;20650;-75
2023/10/25 00:44:32;;;;;;;0.00;0.00;;;;;;;11.28;94.47;98347.59;4996303;28;20109;-74
2023/10/25 00:46:58;;;;;;;0.00;0.00;;;;;;;11.39;94.33;98371.91;4989238;28;20041;-75
2023/10/25 00:49:33;;;;;;;0.00;0.00;;;;;;;11.29;94.06;98345.69;5007899;28;20026;-74
2023/10/25 00:51:58;;;;;;;0.00;0.00;;;;;;;11.33;94.31;98346.63;4969569;28;20494;-75
2023/10/25 00:54:26;;;;;;;0.00;0.00;;;;;;;11.22;94.00;98339.91;4981171;28;20124;-78
2023/10/25 00:56:55;;;;;;;0.00;0.00;;;;;;;11.17;93.59;98335.41;4987385;28;20468;-75
2023/10/25 00:59:29;;;;;;;0.00;0.00;;;;;;;11.29;94.57;98335.53;5010368;28;20026;-74
2023/10/25 01:01:56;;;;;;;0.00;0.00;;;;;;;11.33;93.71;98335.69;4985772;28;20108;-77
2023/10/25 01:04:22;;;;;;;0.00;0.00;;;;;;;11.31;93.25;98327.81;5010047;28;20065;-75
2023/10/25 01:06:47;;;;;;;0.00;0.00;;;;;;;11.33;92.93;98331.03;4942848;28;20034;-76
2023/10/25 01:09:12;;;;;;;0.00;0.00;;;;;;;11.36;93.10;98329.59;4979456;28;20033;-74
2023/10/25 01:11:39;;;;;;;0.00;0.00;;;;;;;11.35;92.92;98328.00;4997295;28;20490;-75
2023/10/25 01:14:15;;;;;;;;;;;;;;;;;;;;;
2023/10/25 01:16:40;;;;;;;0.00;0.00;;;;;;;11.38;92.53;98326.53;5017308;28;20035;-75
2023/10/25 01:19:08;;;;;;;0.00;0.00;;;;;;;11.25;93.06;98312.69;4969716;28;20500;-76
2023/10/25 01:21:43;;;;;;;0.00;0.00;;;;;;;11.29;92.61;98308.19;5009087;28;20049;-75
2023/10/25 01:24:09;;;;;;;0.00;0.00;;;;;;;11.51;92.63;98350.19;4997962;28;20367;-78
2023/10/25 01:26:35;;;;;;;0.00;0.00;;;;;;;11.49;93.05;98352.44;5002005;28;20386;-77
2023/10/25 01:29:02;;;;;;;0.00;0.00;;;;;;;11.33;92.67;98325.56;4989438;28;20034;-75
2023/10/25 01:31:28;;;;;;;0.00;0.00;;;;;;;11.29;92.68;98321.88;4988778;28;20392;-76
2023/10/25 01:34:04;;;;;;;0.00;0.00;;;;;;;11.26;93.65;98325.25;4986066;28;20034;-76
2023/10/25 01:36:29;;;;;;;0.00;0.00;;;;;;;11.20;93.73;98312.88;4972343;28;20034;-75
2023/10/25 01:38:55;;;;;;;0.00;0.00;;;;;;;11.38;93.32;98348.44;4990902;28;20122;-76
2023/10/25 01:41:20;;;;;;;0.00;0.00;;;;;;;11.30;93.28;98330.88;5006288;28;20044;-76
2023/10/25 01:43:46;;;;;;;0.00;0.00;;;;;;;11.27;93.22;98321.41;5000624;28;20220;-76
2023/10/25 01:46:11;;;;;;;0.00;0.00;;;;;;;11.35;93.48;98328.78;4997847;28;20053;-76
2023/10/25 01:48:37;;;;;;;0.00;0.00;;;;;;;11.35;93.72;98323.31;4983992;28;20036;-75
2023/10/25 01:51:06;;;;;;;0.00;0.00;;;;;;;11.38;93.66;98315.59;5006964;28;20018;-75
2023/10/25 01:53:33;;;;;;;0.00;0.00;;;;;;;11.22;93.37;98277.78;5001467;28;20026;-76
2023/10/25 01:55:59;;;;;;;0.00;0.00;;;;;;;11.38;93.70;98304.66;4988404;28;20407;-74
2023/10/25 01:58:25;;;;;;;0.00;0.00;;;;;;;11.21;93.86;98278.09;4990718;28;20022;-77
2023/10/25 02:00:50;;;;;;;0.00;0.00;;;;;;;11.39;93.22;98295.28;4999109;28;20022;-76
2023/10/25 02:03:16;;;;;;;0.00;0.00;;;;;;;11.38;93.07;98283.56;5005434;28;20050;-76
2023/10/25 02:05:51;;;;;;;0.00;0.00;;;;;;;11.34;93.57;98275.16;4992187;28;20038;-78
2023/10/25 02:08:16;;;;;;;0.00;0.00;;;;;;;11.43;93.11;98294.31;4989606;28;20048;-76
2023/10/25 02:10:42;;;;;;;0.00;0.00;;;;;;;11.34;93.04;98269.69;4988513;28;20424;-75
2023/10/25 02:13:07;;;;;;;0.00;0.00;;;;;;;11.38;92.61;98271.81;5000007;28;20611;-74
2023/10/25 02:15:33;;;;;;;0.00;0.00;;;;;;;11.24;92.75;98256.34;4957266;28;20535;-75
2023/10/25 02:17:58;;;;;;;0.00;0.00;;;;;;;11.22;92.47;98258.63;4967398;28;20025;-75
2023/10/25 02:20:27;;;;;;;0.00;0.00;;;;;;;11.16;93.00;98248.97;4977790;28;20022;-75
2023/10/25 02:22:55;;;;;;;0.00;0.00;;;;;;;11.23;92.59;98260.25;4979508;28;20037;-74
2023/10/25 02:25:21;;;;;;;0.00;0.00;;;;;;;11.24;92.52;98264.56;4994248;28;20036;-77
2023/10/25 02:27:46;;;;;;;0.00;0.00;;;;;;;11.15;92.74;98258.31;5002484;28;20034;-75
2023/10/25 02:30:19;;;;;;;0.00;0.00;;;;;;;11.11;92.33;98240.91;4956838;28;20050;-74
2023/10/25 02:32:44;;;;;;;0.00;0.00;;;;;;;11.13;92.63;98246.88;5006536;28;20904;-76
2023/10/25 02:35:10;;;;;;;0.00;0.00;;;;;;;11.29;92.29;98269.88;4985615;28;20457;-75
2023/10/25 02:37:35;;;;;;;0.00;0.00;;;;;;;11.21;92.14;98242.53;5003486;28;20022;-75
2023/10/25 02:40:01;;;;;;;0.00;0.00;;;;;;;11.17;91.68;98234.19;5000631;28;20080;-76
2023/10/25 02:42:27;;;;;;;0.00;0.00;;;;;;;11.32;91.56;98252.03;5000163;28;20590;-76
2023/10/25 02:45:02;;;;;;;;;;;;;;;;;;;;;
2023/10/25 02:47:28;;;;;;;0.00;0.00;;;;;;;11.04;91.82;98218.72;4999967;28;20019;-76
2023/10/25 02:49:54;;;;;;;0.00;0.00;;;;;;;11.13;92.19;98227.75;4988899;28;20024;-75
2023/10/25 02:52:19;;;;;;;0.00;0.00;;;;;;;11.19;91.44;98242.84;4988053;28;20116;-75
2023/10/25 02:54:45;;;;;;;0.00;0.00;;;;;;;11.03;92.02;98211.66;4996876;28;20473;-76
2023/10/25 02:57:10;;;;;;;0.00;0.00;;;;;;;11.20;91.81;98236.25;4998836;28;20026;-74
2023/10/25 02:59:36;;;;;;;0.00;0.00;;;;;;;11.15;91.77;98225.47;5002047;28;20038;-75
2023/10/25 03:02:01;;;;;;;0.00;0.00;;;;;;;11.12;91.73;98228.88;4983557;28;20034;-74
2023/10/25 03:04:26;;;;;;;0.00;0.00;;;;;;;11.02;92.25;98216.31;5005716;28;20067;-76
2023/10/25 03:06:52;;;;;;;0.00;0.00;;;;;;;11.05;91.91;98215.66;4969805;28;20034;-76
2023/10/25 03:09:17;;;;;;;0.00;0.00;;;;;;;11.01;92.30;98220.19;4984799;28;20041;-76
2023/10/25 03:11:43;;;;;;;0.00;0.00;;;;;;;10.95;92.74;98214.09;4984646;28;20056;-76
2023/10/25 03:14:08;;;;;;;0.00;0.00;;;;;;;10.88;92.46;98213.75;4966912;28;20030;-76
2023/10/25 03:16:33;;;;;;;0.00;0.00;;;;;;;10.89;92.62;98212.59;4986874;28;20030;-76
2023/10/25 03:18:59;;;;;;;0.00;0.00;;;;;;;10.93;92.66;98219.03;4965740;28;20030;-75
2023/10/25 03:21:24;;;;;;;0.00;0.00;;;;;;;10.87;93.22;98214.88;4986916;28;20075;-75
2023/10/25 03:23:50;;;;;;;0.00;0.00;;;;;;;10.98;93.00;98215.34;5004618;28;20076;-77
2023/10/25 03:26:16;;;;;;;0.00;0.00;;;;;;;10.99;93.37;98212.31;4982545;28;20033;-75
2023/10/25 03:28:41;;;;;;;0.00;0.00;;;;;;;10.96;92.78;98212.94;4967025;28;20030;-76
2023/10/25 03:31:08;;;;;;;0.00;0.00;;;;;;;10.96;93.25;98207.47;4982112;28;20034;-76
2023/10/25 03:33:34;;;;;;;0.00;0.00;;;;;;;10.88;93.62;98189.16;4999086;28;20052;-75
2023/10/25 03:36:00;;;;;;;0.00;0.00;;;;;;;10.89;93.88;98190.75;4984583;28;20030;-74
2023/10/25 03:38:26;;;;;;;0.00;0.00;;;;;;;10.92;93.71;98195.59;4998060;28;20025;-75
2023/10/25 03:41:05;;;;;;;0.03;0.03;;;;;;;10.99;93.74;98190.44;4973482;28;20050;-76
2023/10/25 03:43:32;;;;;;;0.00;0.00;;;;;;;11.02;94.04;98193.63;4995928;28;20033;-75
2023/10/25 03:46:08;;;;;;;0.00;0.00;;;;;;;10.82;93.68;98163.09;4998710;28;20022;-75
2023/10/25 03:48:34;;;;;;;0.00;0.00;;;;;;;11.05;93.97;98184.78;5001046;28;20026;-74
2023/10/25 03:51:06;;;;;;;0.00;0.00;;;;;;;11.13;93.74;98178.50;4989103;28;20030;-75
2023/10/25 03:53:38;;;;;;;0.00;0.00;;;;;;;10.99;93.28;98165.81;5007473;28;20530;-75
2023/10/25 03:56:04;;;;;;;0.00;0.00;;;;;;;11.11;93.10;98180.75;4978469;28;20029;-73
2023/10/25 03:58:29;;;;;;;0.00;0.00;;;;;;;11.08;93.12;98178.66;4980283;28;20030;-75
2023/10/25 04:01:02;;;;;;;0.00;0.00;;;;;;;11.05;93.40;98187.53;4997540;28;20468;-75
2023/10/25 04:03:28;;;;;;;0.00;0.00;;;;;;;10.98;93.13;98172.41;5003211;28;20578;-75
2023/10/25 04:05:54;;;;;;;0.00;0.00;;;;;;;10.98;93.44;98183.34;4993160;28;20022;-75
2023/10/25 04:08:20;;;;;;;0.00;0.00;;;;;;;10.87;93.15;98165.66;4984586;28;20121;-76
2023/10/25 04:10:50;;;;;;;0.00;0.00;;;;;;;10.85;93.79;98173.41;5005062;28;20022;-75
2023/10/25 04:13:16;;;;;;;0.00;0.00;;;;;;;10.83;93.92;98176.44;4982808;28;20033;-76
2023/10/25 04:15:41;;;;;;;0.00;0.00;;;;;;;10.84;93.35;98174.50;4988423;28;20464;-75
2023/10/25 04:18:09;;;;;;;0.00;0.00;;;;;;;10.80;93.92;98170.81;4978072;28;20033;-75
2023/10/25 04:20:35;;;;;;;0.00;0.00;;;;;;;10.80;94.10;98162.59;4996675;28;20042;-75
2023/10/25 04:23:00;;;;;;;0.00;0.00;;;;;;;10.72;93.87;98157.94;4978570;28;20025;-76
2023/10/25 04:25:26;;;;;;;0.00;0.00;;;;;;;10.80;94.30;98165.34;4989182;28;20776;-76
2023/10/25 04:27:53;;;;;;;0.00;0.00;;;;;;;10.77;93.52;98160.53;4959096;28;20047;-75
2023/10/25 04:30:18;;;;;;;0.00;0.00;;;;;;;10.82;93.60;98163.09;4975197;28;20038;-75
2023/10/25 04:32:46;;;;;;;0.00;0.00;;;;;;;10.78;93.74;98164.88;4997414;28;20022;-76
2023/10/25 04:35:12;;;;;;;0.00;0.00;;;;;;;10.70;93.52;98147.31;5000489;28;20661;-74
2023/10/25 04:37:37;;;;;;;0.00;0.00;;;;;;;10.72;93.85;98157.94;4984692;28;20113;-77
2023/10/25 04:40:03;;;;;;;0.00;0.00;;;;;;;10.77;94.45;98160.53;4966677;28;20455;-75
2023/10/25 04:42:29;;;;;;;0.00;0.00;;;;;;;10.84;93.90;98158.09;4981104;28;20049;-76
2023/10/25 04:44:54;;;;;;;0.00;0.00;;;;;;;10.81;93.50;98150.56;4999196;28;20140;-75
2023/10/25 04:47:22;;;;;;;0.00;0.00;;;;;;;10.77;93.53;98138.66;4997735;28;20133;-76
2023/10/25 04:49:47;;;;;;;0.00;0.00;;;;;;;10.81;93.54;98153.28;4969173;28;20042;-75
2023/10/25 04:52:13;;;;;;;0.00;0.00;;;;;;;10.76;93.62;98161.63;4968789;28;20037;-75
2023/10/25 04:54:43;;;;;;;0.00;0.00;;;;;;;10.85;93.65;98146.06;4988114;28;20038;-76
2023/10/25 04:57:08;;;;;;;0.00;0.00;;;;;;;10.82;93.80;98154.91;4999568;28;20049;-74
2023/10/25 04:59:34;;;;;;;0.00;0.00;;;;;;;10.85;94.12;98151.53;4984884;28;20084;-75
2023/10/25 05:01:59;;;;;;;0.00;0.00;;;;;;;10.85;93.40;98156.16;4969728;28;20379;-75
2023/10/25 05:04:25;;;;;;;0.00;0.00;;;;;;;10.83;94.08;98153.75;4988513;28;20049;-75
2023/10/25 05:06:50;;;;;;;0.00;0.00;;;;;;;10.91;94.55;98149.44;4983649;28;20041;-75
2023/10/25 05:09:16;;;;;;;0.00;0.00;;;;;;;10.90;93.76;98143.13;4980153;28;20045;-75
2023/10/25 05:11:48;;;;;;;0.00;0.00;;;;;;;10.93;93.19;98138.97;4987454;28;20427;-73
2023/10/25 05:14:14;;;;;;;0.00;0.00;;;;;;;11.07;93.38;98141.50;4994482;28;20117;-74
2023/10/25 05:16:40;;;;;;;0.00;0.00;;;;;;;11.04;93.12;98142.16;4987187;28;20168;-74
2023/10/25 05:19:06;;;;;;;0.00;0.00;;;;;;;10.98;93.19;98150.53;4981154;28;20072;-77
2023/10/25 05:21:35;;;;;;;0.00;0.00;;;;;;;10.90;92.97;98147.81;4994241;28;20056;-75
2023/10/25 05:24:03;;;;;;;0.00;0.00;;;;;;;10.94;93.17;98155.03;5001436;28;20026;-75
2023/10/25 05:26:29;;;;;;;0.00;0.00;;;;;;;10.89;93.36;98149.72;4996329;28;20041;-75
2023/10/25 05:28:54;;;;;;;0.00;0.00;;;;;;;10.87;93.83;98145.72;4999006;28;20582;-74
2023/10/25 05:31:22;;;;;;;0.10;0.10;;;;;;;10.91;93.74;98135.75;4982563;28;20466;-74
2023/10/25 05:33:47;;;;;;;0.00;0.00;;;;;;;10.93;92.99;98147.94;4984890;28;20026;-74
2023/10/25 05:36:14;;;;;;;0.00;0.00;;;;;;;10.98;93.67;98149.72;5005838;28;20037;-74
2023/10/25 05:38:39;;;;;;;0.00;0.00;;;;;;;10.91;93.25;98150.22;4997675;28;20069;-75
2023/10/25 05:41:05;;;;;;;0.00;0.00;;;;;;;10.85;93.47;98148.78;5006266;28;20168;-75
2023/10/25 05:43:36;;;;;;;0.00;0.00;;;;;;;10.97;94.27;98142.66;4977653;28;20661;-73
2023/10/25 05:46:01;;;;;;;0.00;0.00;;;;;;;11.16;93.51;98148.56;4999924;28;20132;-75
2023/10/25 05:48:27;;;;;;;0.00;0.00;;;;;;;11.13;92.79;98140.22;5001052;28;20451;-75
2023/10/25 05:50:53;;;;;;;0.00;0.00;;;;;;;11.08;92.69;98149.41;4972922;28;20033;-75
2023/10/25 05:53:19;;;;;;;0.00;0.00;;;;;;;11.10;93.31;98149.06;4997346;28;20037;-74
2023/10/25 05:55:45;;;;;;;0.00;0.00;;;;;;;11.04;93.32;98142.16;4989249;28;20034;-75
2023/10/25 05:58:10;;;;;;;0.00;0.00;;;;;;;11.13;92.98;98151.16;4988060;28;20033;-74
2023/10/25 06:00:36;;;;;;;0.00;0.00;;;;;;;11.14;93.29;98147.28;4975193;28;20089;-74
2023/10/25 06:03:02;;;;;;;0.00;0.00;;;;;;;11.16;93.12;98137.63;5001962;28;20042;-76
2023/10/25 06:05:32;;;;;;;0.00;0.00;;;;;;;11.11;93.08;98153.41;4998887;28;20026;-74
2023/10/25 06:07:57;;;;;;;0.00;0.00;;;;;;;11.07;93.55;98142.31;4999780;28;20050;-74
2023/10/25 06:10:23;;;;;;;0.00;0.00;;;;;;;11.04;93.54;98144.88;4995281;28;20030;-74
2023/10/25 06:12:52;;;;;;;0.00;0.00;;;;;;;11.07;93.93;98145.03;4966822;28;20145;-74
2023/10/25 06:15:18;;;;;;;0.00;0.00;;;;;;;11.14;93.50;98159.03;4988510;28;20056;-73
2023/10/25 06:17:43;;;;;;;0.00;0.00;;;;;;;11.10;93.94;98154.53;4968858;28;20065;-75
2023/10/25 06:20:19;;;;;;;0.00;0.00;;;;;;;11.08;94.24;98157.59;5004200;28;20025;-74
2023/10/25 06:22:45;;;;;;;0.00;0.00;;;;;;;11.10;93.98;98163.53;4968514;28;20026;-75
2023/10/25 06:25:10;;;;;;;0.00;0.00;;;;;;;11.09;94.13;98169.34;4983155;28;20031;-74
2023/10/25 06:27:36;;;;;;;0.00;0.00;;;;;;;11.12;94.95;98163.22;5000106;28;20117;-74
2023/10/25 06:30:01;;;;;;;0.00;0.00;;;;;;;11.13;94.47;98164.84;5000804;28;20164;-74
2023/10/25 06:32:27;;;;;;;0.00;0.00;;;;;;;11.17;94.36;98163.84;5006179;28;20906;-74
2023/10/25 06:34:53;;;;;;;0.00;0.00;;;;;;;11.23;94.66;98161.75;4946031;28;20121;-74
2023/10/25 06:37:19;;;;;;;0.00;0.00;;;;;;;11.15;94.17;98160.63;4985936;28;20477;-75
2023/10/25 06:39:44;;;;;;;0.00;0.00;;;;;;;11.16;94.72;98164.19;4983555;28;20026;-72
2023/10/25 06:42:13;;;;;;;0.00;0.00;;;;;;;11.08;95.01;98159.53;4992190;28;20891;-73
2023/10/25 06:44:38;;;;;;;0.00;0.00;;;;;;;11.13;94.50;98170.31;4979163;28;20042;-73
2023/10/25 06:47:06;;;;;;;0.00;0.00;;;;;;;11.14;94.79;98169.16;5000205;28;20041;-74
2023/10/25 06:49:39;;;;;;;0.00;0.00;;;;;;;11.11;94.16;98150.66;4977464;28;20038;-74
2023/10/25 06:52:05;;;;;;;0.00;0.00;;;;;;;11.13;94.78;98157.41;4970345;28;20736;-74
2023/10/25 06:54:30;;;;;;;0.00;0.00;;;;;;;11.13;94.05;98167.56;4999749;28;20125;-73
2023/10/25 06:56:57;;;;;;;0.00;0.00;;;;;;;11.11;94.40;98167.06;4982419;28;20407;-75
2023/10/25 06:59:23;;;;;;;0.00;0.00;;;;;;;11.22;95.21;98182.03;4996957;28;20538;-72
2023/10/25 07:02:04;;;;;;;0.00;0.00;;;;;;;11.21;94.56;98174.94;4999560;28;20034;-72
2023/10/25 07:04:34;;;;;;;0.00;0.00;;;;;;;11.34;94.67;98173.94;4996182;28;20504;-72
2023/10/25 07:07:03;;;;;;;0.00;0.00;;;;;;;11.34;94.50;98179.41;4992123;28;20034;-73
2023/10/25 07:09:32;;;;;;;0.00;0.00;;;;;;;11.26;93.94;98171.25;4995748;28;20042;-72
2023/10/25 07:11:57;;;;;;;0.00;0.00;;;;;;;11.34;94.29;98162.97;4997718;28;20025;-71
2023/10/25 07:14:25;;;;;;;0.00;0.00;;;;;;;11.34;93.13;98162.97;4962639;28;20026;-72
2023/10/25 07:16:59;;;;;;;0.00;0.00;;;;;;;11.28;93.69;98166.25;4986483;28;20138;-73
2023/10/25 07:19:24;;;;;;;0.00;0.00;;;;;;;11.34;94.33;98190.34;4997153;28;20101;-72
2023/10/25 07:21:50;;;;;;;0.00;0.00;;;;;;;11.31;94.18;98187.47;5001427;28;20026;-73
2023/10/25 07:24:15;;;;;;;0.00;0.00;;;;;;;11.17;94.95;98168.53;5011061;28;20422;-74
2023/10/25 07:26:41;;;;;;;0.00;0.00;;;;;;;11.41;94.47;98194.53;4986716;28;21457;-73
2023/10/25 07:29:06;;;;;;;0.00;0.00;;;;;;;11.38;94.38;98181.50;5002562;28;20046;-72
2023/10/25 07:31:34;;;;;;;0.00;0.00;;;;;;;11.41;94.46;98186.34;4982007;28;20029;-73
2023/10/25 07:34:06;;;;;;;0.00;0.00;;;;;;;11.30;94.32;98167.53;4988267;28;20538;-73
2023/10/25 07:36:32;;;;;;;0.00;0.00;;;;;;;11.58;94.25;98202.69;4995301;28;20478;-72
2023/10/25 07:38:59;;;;;;;0.00;0.00;;;;;;;11.65;93.88;98189.31;4992315;28;20034;-73
2023/10/25 07:41:25;;;;;;;0.00;0.00;;;;;;;11.86;93.29;98200.34;4979368;28;20080;-73
2023/10/25 07:43:50;;;;;;;0.00;0.00;;;;;;;11.92;92.60;98197.44;4992750;28;21238;-72
2023/10/25 07:46:16;;;;;;;0.00;0.00;;;;;;;11.99;92.28;98187.59;4957102;28;20037;-72
2023/10/25 07:48:41;;;;;;;0.00;0.00;;;;;;;12.10;92.07;98187.22;4959998;28;20037;-72
2023/10/25 07:51:06;;;;;;;0.00;0.00;;;;;;;12.18;91.51;98178.16;4984651;28;20499;-74
2023/10/25 07:53:32;;;;;;;0.00;0.00;;;;;;;12.31;91.27;98185.31;4958664;28;20029;-71
2023/10/25 07:56:01;;;;;;;0.00;0.00;;;;;;;12.37;90.66;98197.69;4976884;28;20030;-73
2023/10/25 07:58:27;;;;;;;0.00;0.00;;;;;;;12.36;90.61;98196.06;4996885;28;20033;-72
2023/10/25 08:00:53;;;;;;;0.00;0.00;;;;;;;12.35;90.41;98199.97;4978045;28;20068;-71
2023/10/25 08:03:18;;;;;;;0.00;0.00;;;;;;;12.38;90.96;98204.78;4981351;28;20050;-71
2023/10/25 08:05:44;;;;;;;0.00;0.00;;;;;;;12.44;90.24;98207.31;4990858;28;20034;-72
2023/10/25 08:08:10;;;;;;;0.00;0.00;;;;;;;12.44;90.26;98207.31;5004045;28;20037;-73
2023/10/25 08:10:36;;;;;;;0.00;0.00;;;;;;;12.53;90.14;98216.28;4974958;28;20688;-72
2023/10/25 08:13:01;;;;;;;0.00;0.00;;;;;;;12.64;89.85;98211.22;4997249;28;20029;-74
2023/10/25 08:15:27;;;;;;;0.00;0.00;;;;;;;12.71;89.68;98215.00;4967753;28;21170;-73
2023/10/25 08:17:59;;;;;;;0.00;0.00;;;;;;;12.73;89.17;98210.00;4991912;28;20037;-74
2023/10/25 08:20:25;;;;;;;0.00;0.00;;;;;;;12.80;88.67;98223.19;4980456;28;20022;-73
2023/10/25 08:22:50;;;;;;;0.00;0.00;;;;;;;12.85;88.50;98233.13;4971445;28;20033;-73
2023/10/25 08:25:16;;;;;;;0.00;0.00;;;;;;;12.85;88.36;98233.13;5010129;28;20072;-75
2023/10/25 08:27:41;;;;;;;0.00;0.00;;;;;;;12.85;88.55;98244.09;5002042;28;20053;-74
2023/10/25 08:30:07;;;;;;;0.00;0.00;;;;;;;12.77;88.15;98242.25;4940883;28;20678;-73
2023/10/25 08:32:33;;;;;;;0.00;0.00;;;;;;;12.64;88.47;98244.91;4994625;28;20029;-73
2023/10/25 08:35:07;;;;;;;0.00;0.00;;;;;;;12.61;88.51;98244.78;5002079;28;20034;-74
2023/10/25 08:37:32;;;;;;;;;;;;;;;12.56;88.44;98251.25;4988661;28;20045;-75
2023/10/25 08:39:58;;;;;;;0.00;0.00;;;;;;;12.47;88.39;98234.06;5006629;28;20295;-74
2023/10/25 08:42:29;;;;;;;0.00;0.00;;;;;;;12.43;88.69;98222.16;4965364;28;20431;-73
2023/10/25 08:44:55;;;;;;;0.00;0.00;;;;;;;12.49;88.75;98229.06;5005965;28;20028;-73
2023/10/25 08:47:26;;;;;;;0.00;0.00;;;;;;;12.53;88.11;98227.25;4987486;28;20045;-74
2023/10/25 08:49:52;;;;;;;0.00;0.00;;;;;;;12.77;87.82;98253.22;4979368;28;20039;-74
2023/10/25 08:52:32;;;;;;;0.03;0.03;;;;;;;12.75;87.63;98228.88;4994752;28;20503;-74
2023/10/25 08:55:01;;;;;;;0.00;0.00;;;;;;;12.99;86.89;98250.13;4995841;28;20372;-72
2023/10/25 08:57:28;;;;;;;0.00;0.00;;;;;;;12.95;86.34;98232.72;4987976;28;20869;-74
2023/10/25 08:59:54;;;;;;;0.00;0.00;;;;;;;12.83;86.09;98251.88;4996720;28;20108;-75
2023/10/25 09:02:19;;;;;;;0.00;0.00;;;;;;;12.66;86.22;98270.06;5010910;28;20047;-73
2023/10/25 09:04:58;;;;;;;0.00;0.00;;;;;;;12.55;86.34;98286.09;4985357;28;20407;-73
2023/10/25 09:07:36;;;;;;;0.00;0.00;;;;;;;12.40;86.33;98287.47;5012899;28;20026;-73
2023/10/25 09:10:19;;;;;;;0.00;0.00;;;;;;;12.25;86.82;98268.03;5000526;28;20112;-73
2023/10/25 09:12:45;;;;;;;0.00;0.00;;;;;;;12.30;87.00;98285.09;4987053;28;20563;-73
2023/10/25 09:15:30;;;;;;;0.00;0.00;;;;;;;12.15;86.25;98264.53;5007784;28;20038;-72
2023/10/25 09:18:01;;;;;;;0.00;0.00;;;;;;;12.19;86.29;98272.88;5000487;28;20021;-72
2023/10/25 09:20:27;;;;;;;0.00;0.00;;;;;;;12.11;86.18;98255.34;4997888;28;20033;-73
2023/10/25 09:23:08;;;;;;;0.00;0.00;;;;;;;12.39;85.94;98288.59;4980841;28;20033;-71
2023/10/25 09:25:33;;;;;;;0.00;0.00;;;;;;;12.26;85.79;98261.44;4995031;28;20125;-73
2023/10/25 09:28:14;;;;;;;0.00;0.00;;;;;;;12.37;85.64;98273.63;4980311;28;20361;-72
2023/10/25 09:30:40;;;;;;;0.00;0.00;;;;;;;12.57;85.79;98296.72;4995527;28;20476;-73
2023/10/25 09:33:05;;;;;;;0.00;0.00;;;;;;;12.61;85.56;98288.66;4999887;28;20045;-73
2023/10/25 09:35:31;;;;;;;0.00;0.00;;;;;;;12.83;84.85;98291.06;4982944;28;20395;-71
2023/10/25 09:37:57;;;;;;;0.00;0.00;;;;;;;13.07;84.64;98289.63;5004949;28;20052;-72
2023/10/25 09:40:25;;;;;;;0.00;0.00;;;;;;;13.23;84.06;98284.34;4995422;28;20034;-73
2023/10/25 09:42:56;;;;;;;0.00;0.00;;;;;;;13.49;82.76;98299.78;5006192;28;20431;-73
2023/10/25 09:45:30;;;;;;;0.00;0.00;;;;;;;13.35;82.67;98261.66;4994116;28;20052;-73
2023/10/25 09:48:04;;;;;;;0.00;0.00;;;;;;;13.58;82.38;98286.78;4993406;28;20093;-71
2023/10/25 09:50:41;;;;;;;0.00;0.00;;;;;;;13.61;81.66;98280.63;5000110;28;20021;-71
2023/10/25 09:53:30;;;;;;;0.00;0.00;;;;;;;13.81;81.15;98302.88;4985084;28;20033;-72
2023/10/25 09:56:03;;;;;;;0.00;0.00;;;;;;;13.66;80.51;98288.63;4968402;28;20026;-72
2023/10/25 09:58:33;;;;;;;0.00;0.00;;;;;;;13.60;80.77;98290.00;4999765;28;20484;-72
2023/10/25 10:00:59;;;;;;;0.00;0.00;;;;;;;13.39;80.00;98290.84;4989476;28;20427;-76
2023/10/25 10:03:44;;;;;;;0.00;0.00;;;;;;;13.35;81.09;98311.88;5006566;28;20062;-72
2023/10/25 10:06:50;;;;;;;0.00;0.00;;;;;;;13.16;81.49;98315.06;4998134;28;20022;-71
2023/10/25 10:09:37;;;;;;;0.00;0.00;;;;;;;12.95;81.80;98308.75;4992637;28;20422;-73
2023/10/25 10:12:08;;;;;;;0.00;0.00;;;;;;;12.82;82.50;98316.09;4989895;28;20029;-72
2023/10/25 10:14:38;;;;;;;0.00;0.00;;;;;;;12.75;82.40;98333.88;4984157;28;20037;-73
2023/10/25 10:17:09;;;;;;;0.00;0.00;;;;;;;12.52;82.92;98318.84;4996903;28;20034;-73
2023/10/25 10:19:40;;;;;;;0.00;0.00;;;;;;;12.43;83.49;98329.06;4983855;28;20030;-73
2023/10/25 10:22:12;;;;;;;0.00;0.00;;;;;;;12.31;84.32;98336.03;4986761;28;20424;-73
2023/10/25 10:24:56;;;;;;;0.00;0.00;;;;;;;12.14;84.01;98325.94;4996709;28;20116;-72
2023/10/25 10:27:54;;;;;;;0.00;0.00;;;;;;;12.13;84.75;98345.44;4987873;28;20456;-72
2023/10/25 10:30:37;;;;;;;0.00;0.00;;;;;;;12.08;84.94;98337.41;5010760;28;20042;-73
2023/10/25 10:33:04;;;;;;;0.00;0.00;;;;;;;12.03;85.25;98330.97;4986120;28;20415;-73
2023/10/25 10:35:33;;;;;;;0.00;0.00;;;;;;;12.05;85.28;98338.88;4979695;28;20034;-73
2023/10/25 10:37:59;;;;;;;0.00;0.00;;;;;;;12.09;84.92;98334.34;4963324;28;20030;-73
2023/10/25 10:40:25;;;;;;;0.00;0.00;;;;;;;12.09;85.34;98334.34;4991980;28;20030;-75
2023/10/25 10:42:54;;;;;;;0.00;0.00;;;;;;;12.13;85.50;98340.75;4987422;28;20095;-73
2023/10/25 10:45:19;;;;;;;0.00;0.00;;;;;;;12.16;85.40;98344.78;4996727;28;20083;-72
2023/10/25 10:48:21;;;;;;;0.00;0.00;;;;;;;12.18;84.99;98342.53;5003555;28;20033;-73
2023/10/25 10:50:50;;;;;;;0.00;0.00;;;;;;;12.21;84.76;98330.91;4968659;28;20185;-73
2023/10/25 10:53:16;;;;;;;0.00;0.00;;;;;;;12.34;84.97;98340.84;4988997;28;20030;-73
2023/10/25 10:55:43;;;;;;;0.00;0.00;;;;;;;12.46;84.10;98342.09;4994869;28;20026;-74
2023/10/25 10:58:09;;;;;;;0.00;0.00;;;;;;;12.58;83.36;98345.72;4993921;28;20064;-73
2023/10/25 11:00:35;;;;;;;0.00;0.00;;;;;;;12.67;83.45;98353.13;4987000;28;20117;-74
2023/10/25 11:03:02;;;;;;;0.00;0.00;;;;;;;12.77;82.97;98357.44;4988170;28;20121;-74
2023/10/25 11:05:27;;;;;;;0.00;0.00;;;;;;;12.81;82.75;98347.41;4986517;28;20037;-73
2023/10/25 11:07:53;;;;;;;0.00;0.00;;;;;;;12.77;82.96;98355.47;4999716;28;20053;-70
2023/10/25 11:10:19;;;;;;;0.00;0.00;;;;;;;12.67;82.71;98355.88;4993418;28;20550;-72
2023/10/25 11:12:45;;;;;;;0.00;0.00;;;;;;;12.65;82.98;98367.16;4978703;28;20057;-72
2023/10/25 11:15:12;;;;;;;0.00;0.00;;;;;;;12.63;83.15;98368.63;4998718;28;20049;-71
2023/10/25 11:17:38;;;;;;;0.00;0.00;;;;;;;12.53;83.13;98362.38;4981245;28;20025;-71
2023/10/25 11:20:04;;;;;;;0.00;0.00;;;;;;;12.48;83.36;98367.25;4965203;28;20030;-71
2023/10/25 11:22:33;;;;;;;0.00;0.00;;;;;;;12.41;83.86;98362.25;4988028;28;20476;-72
2023/10/25 11:24:59;;;;;;;0.00;0.00;;;;;;;12.42;83.49;98363.09;4985673;28;20030;-72
2023/10/25 11:27:29;;;;;;;0.00;0.00;;;;;;;12.37;83.50;98353.91;4991822;28;20045;-71
2023/10/25 11:29:55;;;;;;;0.00;0.00;;;;;;;12.50;83.85;98370.44;4975846;28;20037;-72
2023/10/25 11:32:23;;;;;;;0.00;0.00;;;;;;;12.55;83.56;98362.84;4986084;28;20064;-75
2023/10/25 11:34:54;;;;;;;0.00;0.00;;;;;;;12.50;83.20;98349.34;4973647;28;20468;-74
2023/10/25 11:37:21;;;;;;;0.00;0.00;;;;;;;12.65;83.14;98367.16;4988538;28;20042;-73
2023/10/25 11:40:01;;;;;;;0.00;0.00;;;;;;;12.52;82.85;98357.22;4987569;28;20157;-74